Couch, Missouri
Current Conditions -  °F | °C
As of 1:53 AM on Friday 24 Oct 2014 (Local Time) from KUNO Reporting Station
Broken Clouds Broken Clouds  
Wind Chill: 51°   Ceiling: 3400
Heat Index: 51°   Visibility: 10mi
Dew Point: 46°   Wind: 3mph
Humidity: 83%   Direction: 250°WSW
Pressure: 30.13"   Gusts: NA
Location:  36.61°N, 91.38°W
Report Text: KUNO 240653Z AUTO 25003KT 10SM BKN034 11/08 A3013 RMK AO2 SLP201 T01060078
Loading
Personal Weather Stations






























Interactive Weather Map New forecast layout! Learn more

10-Day Weather Forecast

Advertisements
Track Severe Weather on mobile